sensor_id;sensor_type;location;lat;lon;timestamp;P1;durP1;ratioP1;P2;durP2;ratioP2
22644;SDS011;11489;50.834;6.752;2022-07-10T00:00:29;3.30;;;1.50;;
22644;SDS011;11489;50.834;6.752;2022-07-10T00:02:56;3.05;;;1.65;;
22644;SDS011;11489;50.834;6.752;2022-07-10T00:05:23;6.57;;;1.70;;
22644;SDS011;11489;50.834;6.752;2022-07-10T00:07:49;4.15;;;1.33;;
22644;SDS011;11489;50.834;6.752;2022-07-10T00:10:16;3.85;;;1.20;;
22644;SDS011;11489;50.834;6.752;2022-07-10T00:12:46;7.63;;;1.65;;
22644;SDS011;11489;50.834;6.752;2022-07-10T00:15:13;3.42;;;1.10;;
22644;SDS011;11489;50.834;6.752;2022-07-10T00:17:40;3.58;;;1.20;;
22644;SDS011;11489;50.834;6.752;2022-07-10T00:20:07;4.50;;;1.20;;
22644;SDS011;11489;50.834;6.752;2022-07-10T00:22:35;2.47;;;1.25;;
22644;SDS011;11489;50.834;6.752;2022-07-10T00:25:03;5.55;;;1.77;;
22644;SDS011;11489;50.834;6.752;2022-07-10T00:27:30;4.57;;;1.50;;
22644;SDS011;11489;50.834;6.752;2022-07-10T00:29:56;3.83;;;1.40;;
22644;SDS011;11489;50.834;6.752;2022-07-10T00:32:22;5.20;;;1.30;;
22644;SDS011;11489;50.834;6.752;2022-07-10T00:34:48;3.63;;;1.10;;
22644;SDS011;11489;50.834;6.752;2022-07-10T00:37:14;3.42;;;1.27;;
22644;SDS011;11489;50.834;6.752;2022-07-10T00:39:40;3.00;;;1.20;;
22644;SDS011;11489;50.834;6.752;2022-07-10T00:42:10;5.63;;;1.25;;
22644;SDS011;11489;50.834;6.752;2022-07-10T00:44:38;6.05;;;1.20;;
22644;SDS011;11489;50.834;6.752;2022-07-10T00:47:05;3.75;;;1.50;;
22644;SDS011;11489;50.834;6.752;2022-07-10T00:49:35;2.88;;;1.40;;
22644;SDS011;11489;50.834;6.752;2022-07-10T00:52:02;5.82;;;1.08;;
22644;SDS011;11489;50.834;6.752;2022-07-10T00:54:31;2.60;;;1.10;;
22644;SDS011;11489;50.834;6.752;2022-07-10T00:56:58;4.20;;;1.20;;
22644;SDS011;11489;50.834;6.752;2022-07-10T00:59:25;5.50;;;1.25;;
22644;SDS011;11489;50.834;6.752;2022-07-10T01:01:51;3.03;;;1.52;;
22644;SDS011;11489;50.834;6.752;2022-07-10T01:04:17;7.10;;;1.17;;
22644;SDS011;11489;50.834;6.752;2022-07-10T01:06:43;4.88;;;1.20;;
22644;SDS011;11489;50.834;6.752;2022-07-10T01:09:09;2.75;;;1.15;;
22644;SDS011;11489;50.834;6.752;2022-07-10T01:11:35;3.00;;;1.20;;
22644;SDS011;11489;50.834;6.752;2022-07-10T01:14:02;2.25;;;1.27;;
22644;SDS011;11489;50.834;6.752;2022-07-10T01:16:28;3.03;;;1.30;;
22644;SDS011;11489;50.834;6.752;2022-07-10T01:18:55;2.78;;;1.13;;
22644;SDS011;11489;50.834;6.752;2022-07-10T01:21:31;3.10;;;1.05;;
22644;SDS011;11489;50.834;6.752;2022-07-10T01:23:58;2.92;;;1.05;;
22644;SDS011;11489;50.834;6.752;2022-07-10T01:26:25;4.10;;;1.13;;
22644;SDS011;11489;50.834;6.752;2022-07-10T01:28:53;3.88;;;1.30;;
22644;SDS011;11489;50.834;6.752;2022-07-10T01:31:19;3.38;;;1.00;;
22644;SDS011;11489;50.834;6.752;2022-07-10T01:33:49;4.32;;;1.10;;
22644;SDS011;11489;50.834;6.752;2022-07-10T01:36:15;1.88;;;1.00;;
22644;SDS011;11489;50.834;6.752;2022-07-10T01:38:42;5.35;;;1.40;;
22644;SDS011;11489;50.834;6.752;2022-07-10T01:41:08;4.97;;;1.65;;
22644;SDS011;11489;50.834;6.752;2022-07-10T01:43:37;5.47;;;2.17;;
22644;SDS011;11489;50.834;6.752;2022-07-10T01:46:03;8.40;;;1.90;;
22644;SDS011;11489;50.834;6.752;2022-07-10T01:48:29;3.85;;;1.70;;
22644;SDS011;11489;50.834;6.752;2022-07-10T01:50:55;5.00;;;1.58;;
22644;SDS011;11489;50.834;6.752;2022-07-10T01:53:21;3.08;;;1.20;;
22644;SDS011;11489;50.834;6.752;2022-07-10T01:55:47;2.22;;;1.10;;
22644;SDS011;11489;50.834;6.752;2022-07-10T01:58:13;4.28;;;1.40;;
22644;SDS011;11489;50.834;6.752;2022-07-10T02:00:38;3.30;;;1.35;;
22644;SDS011;11489;50.834;6.752;2022-07-10T02:03:04;5.18;;;1.20;;
22644;SDS011;11489;50.834;6.752;2022-07-10T02:05:48;4.03;;;1.02;;
22644;SDS011;11489;50.834;6.752;2022-07-10T02:08:14;4.70;;;1.13;;
22644;SDS011;11489;50.834;6.752;2022-07-10T02:10:39;5.53;;;1.63;;
22644;SDS011;11489;50.834;6.752;2022-07-10T02:13:05;5.38;;;1.13;;
22644;SDS011;11489;50.834;6.752;2022-07-10T02:15:31;2.97;;;1.38;;
22644;SDS011;11489;50.834;6.752;2022-07-10T02:17:57;2.83;;;1.20;;
22644;SDS011;11489;50.834;6.752;2022-07-10T02:20:22;4.03;;;1.10;;
22644;SDS011;11489;50.834;6.752;2022-07-10T02:22:48;3.10;;;1.38;;
22644;SDS011;11489;50.834;6.752;2022-07-10T02:25:13;2.58;;;1.50;;
22644;SDS011;11489;50.834;6.752;2022-07-10T02:27:39;4.28;;;1.40;;
22644;SDS011;11489;50.834;6.752;2022-07-10T02:30:05;4.35;;;1.50;;
22644;SDS011;11489;50.834;6.752;2022-07-10T02:32:31;6.55;;;1.40;;
22644;SDS011;11489;50.834;6.752;2022-07-10T02:34:57;2.72;;;1.25;;
22644;SDS011;11489;50.834;6.752;2022-07-10T02:37:22;2.83;;;1.30;;
22644;SDS011;11489;50.834;6.752;2022-07-10T02:39:48;4.57;;;1.40;;
22644;SDS011;11489;50.834;6.752;2022-07-10T02:42:13;3.95;;;1.50;;
22644;SDS011;11489;50.834;6.752;2022-07-10T02:44:39;4.07;;;1.20;;
22644;SDS011;11489;50.834;6.752;2022-07-10T02:47:05;5.03;;;1.48;;
22644;SDS011;11489;50.834;6.752;2022-07-10T02:49:30;5.68;;;1.38;;
22644;SDS011;11489;50.834;6.752;2022-07-10T02:51:56;6.38;;;1.30;;
22644;SDS011;11489;50.834;6.752;2022-07-10T02:54:23;3.72;;;1.35;;
22644;SDS011;11489;50.834;6.752;2022-07-10T02:56:49;5.55;;;1.33;;
22644;SDS011;11489;50.834;6.752;2022-07-10T02:59:15;5.18;;;1.55;;
22644;SDS011;11489;50.834;6.752;2022-07-10T03:01:42;3.67;;;1.38;;
22644;SDS011;11489;50.834;6.752;2022-07-10T03:04:07;6.40;;;1.30;;
22644;SDS011;11489;50.834;6.752;2022-07-10T03:06:33;3.78;;;1.30;;
22644;SDS011;11489;50.834;6.752;2022-07-10T03:08:59;6.68;;;1.40;;
22644;SDS011;11489;50.834;6.752;2022-07-10T03:11:24;3.33;;;1.27;;
22644;SDS011;11489;50.834;6.752;2022-07-10T03:13:50;5.68;;;1.55;;
22644;SDS011;11489;50.834;6.752;2022-07-10T03:16:15;4.45;;;1.52;;
22644;SDS011;11489;50.834;6.752;2022-07-10T03:18:41;5.72;;;1.60;;
22644;SDS011;11489;50.834;6.752;2022-07-10T03:21:07;3.13;;;1.25;;
22644;SDS011;11489;50.834;6.752;2022-07-10T03:23:32;8.27;;;1.25;;
22644;SDS011;11489;50.834;6.752;2022-07-10T03:25:58;4.13;;;1.30;;
22644;SDS011;11489;50.834;6.752;2022-07-10T03:28:24;2.78;;;1.33;;
22644;SDS011;11489;50.834;6.752;2022-07-10T03:30:49;2.40;;;1.30;;
22644;SDS011;11489;50.834;6.752;2022-07-10T03:33:15;3.92;;;1.30;;
22644;SDS011;11489;50.834;6.752;2022-07-10T03:35:41;3.55;;;1.45;;
22644;SDS011;11489;50.834;6.752;2022-07-10T03:38:07;5.25;;;1.30;;
22644;SDS011;11489;50.834;6.752;2022-07-10T03:40:32;3.47;;;1.25;;
22644;SDS011;11489;50.834;6.752;2022-07-10T03:42:58;4.13;;;1.30;;
22644;SDS011;11489;50.834;6.752;2022-07-10T03:45:24;4.03;;;1.60;;
22644;SDS011;11489;50.834;6.752;2022-07-10T03:47:50;4.88;;;1.38;;
22644;SDS011;11489;50.834;6.752;2022-07-10T03:50:15;5.55;;;1.75;;
22644;SDS011;11489;50.834;6.752;2022-07-10T03:52:41;6.55;;;1.60;;
22644;SDS011;11489;50.834;6.752;2022-07-10T03:55:07;5.57;;;1.58;;
22644;SDS011;11489;50.834;6.752;2022-07-10T03:57:33;5.63;;;1.75;;
22644;SDS011;11489;50.834;6.752;2022-07-10T04:00:17;3.97;;;1.40;;
22644;SDS011;11489;50.834;6.752;2022-07-10T04:02:42;5.03;;;1.67;;
22644;SDS011;11489;50.834;6.752;2022-07-10T04:05:08;2.03;;;1.33;;
22644;SDS011;11489;50.834;6.752;2022-07-10T04:07:35;3.35;;;1.23;;
22644;SDS011;11489;50.834;6.752;2022-07-10T04:10:02;1.92;;;1.10;;
22644;SDS011;11489;50.834;6.752;2022-07-10T04:12:28;5.38;;;1.33;;
22644;SDS011;11489;50.834;6.752;2022-07-10T04:14:53;5.35;;;1.63;;
22644;SDS011;11489;50.834;6.752;2022-07-10T04:17:20;3.60;;;1.23;;
22644;SDS011;11489;50.834;6.752;2022-07-10T04:19:45;2.30;;;1.20;;
22644;SDS011;11489;50.834;6.752;2022-07-10T04:22:11;2.85;;;1.40;;
22644;SDS011;11489;50.834;6.752;2022-07-10T04:24:37;3.92;;;1.38;;
22644;SDS011;11489;50.834;6.752;2022-07-10T04:27:04;3.95;;;1.10;;
22644;SDS011;11489;50.834;6.752;2022-07-10T04:29:29;5.93;;;1.40;;
22644;SDS011;11489;50.834;6.752;2022-07-10T04:31:56;4.30;;;1.40;;
22644;SDS011;11489;50.834;6.752;2022-07-10T04:34:22;3.55;;;1.27;;
22644;SDS011;11489;50.834;6.752;2022-07-10T04:36:47;5.70;;;1.50;;
22644;SDS011;11489;50.834;6.752;2022-07-10T04:39:13;5.80;;;1.65;;
22644;SDS011;11489;50.834;6.752;2022-07-10T04:41:39;4.55;;;1.50;;
22644;SDS011;11489;50.834;6.752;2022-07-10T04:44:04;4.72;;;1.58;;
22644;SDS011;11489;50.834;6.752;2022-07-10T04:46:30;3.95;;;1.50;;
22644;SDS011;11489;50.834;6.752;2022-07-10T04:48:56;4.22;;;1.65;;
22644;SDS011;11489;50.834;6.752;2022-07-10T04:51:21;5.05;;;1.40;;
22644;SDS011;11489;50.834;6.752;2022-07-10T04:53:48;4.68;;;1.33;;
22644;SDS011;11489;50.834;6.752;2022-07-10T04:56:14;3.00;;;1.23;;
22644;SDS011;11489;50.834;6.752;2022-07-10T04:58:40;3.75;;;1.50;;
22644;SDS011;11489;50.834;6.752;2022-07-10T05:01:06;4.80;;;1.35;;
22644;SDS011;11489;50.834;6.752;2022-07-10T05:03:32;2.55;;;1.30;;
22644;SDS011;11489;50.834;6.752;2022-07-10T05:05:57;2.47;;;1.40;;
22644;SDS011;11489;50.834;6.752;2022-07-10T05:08:23;4.03;;;1.70;;
22644;SDS011;11489;50.834;6.752;2022-07-10T05:10:49;5.55;;;1.58;;
22644;SDS011;11489;50.834;6.752;2022-07-10T05:13:14;5.65;;;1.92;;
22644;SDS011;11489;50.834;6.752;2022-07-10T05:15:40;4.13;;;1.60;;
22644;SDS011;11489;50.834;6.752;2022-07-10T05:18:05;5.32;;;1.73;;
22644;SDS011;11489;50.834;6.752;2022-07-10T05:20:31;3.10;;;1.40;;
22644;SDS011;11489;50.834;6.752;2022-07-10T05:22:58;3.75;;;1.50;;
22644;SDS011;11489;50.834;6.752;2022-07-10T05:25:24;4.13;;;1.75;;
22644;SDS011;11489;50.834;6.752;2022-07-10T05:27:51;2.00;;;1.33;;
22644;SDS011;11489;50.834;6.752;2022-07-10T05:30:17;4.25;;;1.40;;
22644;SDS011;11489;50.834;6.752;2022-07-10T05:32:43;3.78;;;1.70;;
22644;SDS011;11489;50.834;6.752;2022-07-10T05:35:10;4.93;;;1.67;;
22644;SDS011;11489;50.834;6.752;2022-07-10T05:37:39;3.22;;;1.60;;
22644;SDS011;11489;50.834;6.752;2022-07-10T05:40:05;4.32;;;1.60;;
22644;SDS011;11489;50.834;6.752;2022-07-10T05:42:31;4.10;;;1.50;;
22644;SDS011;11489;50.834;6.752;2022-07-10T05:44:57;3.08;;;1.75;;
22644;SDS011;11489;50.834;6.752;2022-07-10T05:47:23;5.10;;;1.80;;
22644;SDS011;11489;50.834;6.752;2022-07-10T05:49:48;4.05;;;1.60;;
22644;SDS011;11489;50.834;6.752;2022-07-10T05:52:14;5.05;;;1.40;;
22644;SDS011;11489;50.834;6.752;2022-07-10T05:54:39;2.75;;;1.30;;
22644;SDS011;11489;50.834;6.752;2022-07-10T05:57:05;4.57;;;1.45;;
22644;SDS011;11489;50.834;6.752;2022-07-10T05:59:34;4.50;;;1.48;;
22644;SDS011;11489;50.834;6.752;2022-07-10T06:02:00;7.80;;;1.85;;
22644;SDS011;11489;50.834;6.752;2022-07-10T06:04:26;3.10;;;1.27;;
22644;SDS011;11489;50.834;6.752;2022-07-10T06:06:52;7.05;;;1.40;;
22644;SDS011;11489;50.834;6.752;2022-07-10T06:09:18;3.63;;;1.50;;
22644;SDS011;11489;50.834;6.752;2022-07-10T06:11:43;3.63;;;1.77;;
22644;SDS011;11489;50.834;6.752;2022-07-10T06:14:11;3.63;;;1.38;;
22644;SDS011;11489;50.834;6.752;2022-07-10T06:16:37;6.18;;;1.50;;
22644;SDS011;11489;50.834;6.752;2022-07-10T06:19:03;4.05;;;1.30;;
22644;SDS011;11489;50.834;6.752;2022-07-10T06:21:28;3.45;;;1.40;;
22644;SDS011;11489;50.834;6.752;2022-07-10T06:23:54;6.22;;;1.73;;
22644;SDS011;11489;50.834;6.752;2022-07-10T06:26:20;5.28;;;1.50;;
22644;SDS011;11489;50.834;6.752;2022-07-10T06:28:46;4.20;;;1.73;;
22644;SDS011;11489;50.834;6.752;2022-07-10T06:31:11;7.03;;;1.40;;
22644;SDS011;11489;50.834;6.752;2022-07-10T06:33:37;5.18;;;1.60;;
22644;SDS011;11489;50.834;6.752;2022-07-10T06:36:03;4.82;;;1.35;;
22644;SDS011;11489;50.834;6.752;2022-07-10T06:38:29;4.07;;;1.60;;
22644;SDS011;11489;50.834;6.752;2022-07-10T06:40:55;4.80;;;1.63;;
22644;SDS011;11489;50.834;6.752;2022-07-10T06:43:20;5.03;;;1.70;;
22644;SDS011;11489;50.834;6.752;2022-07-10T06:45:46;4.93;;;1.50;;
22644;SDS011;11489;50.834;6.752;2022-07-10T06:48:12;6.00;;;1.30;;
22644;SDS011;11489;50.834;6.752;2022-07-10T06:50:39;4.70;;;1.60;;
22644;SDS011;11489;50.834;6.752;2022-07-10T06:53:05;8.18;;;2.00;;
22644;SDS011;11489;50.834;6.752;2022-07-10T06:55:31;5.40;;;1.90;;
22644;SDS011;11489;50.834;6.752;2022-07-10T06:57:57;6.25;;;1.60;;
22644;SDS011;11489;50.834;6.752;2022-07-10T07:00:24;3.80;;;1.45;;
22644;SDS011;11489;50.834;6.752;2022-07-10T07:02:50;2.25;;;1.30;;
22644;SDS011;11489;50.834;6.752;2022-07-10T07:05:15;5.45;;;1.50;;
22644;SDS011;11489;50.834;6.752;2022-07-10T07:07:41;4.20;;;1.80;;
22644;SDS011;11489;50.834;6.752;2022-07-10T07:10:07;5.20;;;1.50;;
22644;SDS011;11489;50.834;6.752;2022-07-10T07:12:33;3.35;;;1.40;;
22644;SDS011;11489;50.834;6.752;2022-07-10T07:14:59;6.57;;;1.60;;
22644;SDS011;11489;50.834;6.752;2022-07-10T07:17:25;3.90;;;1.45;;
22644;SDS011;11489;50.834;6.752;2022-07-10T07:19:58;6.38;;;1.30;;
22644;SDS011;11489;50.834;6.752;2022-07-10T07:22:43;4.95;;;1.42;;
22644;SDS011;11489;50.834;6.752;2022-07-10T07:25:27;4.85;;;1.35;;
22644;SDS011;11489;50.834;6.752;2022-07-10T07:27:53;5.88;;;1.60;;
22644;SDS011;11489;50.834;6.752;2022-07-10T07:30:18;7.57;;;1.55;;
22644;SDS011;11489;50.834;6.752;2022-07-10T07:32:45;7.57;;;1.65;;
22644;SDS011;11489;50.834;6.752;2022-07-10T07:35:14;3.75;;;1.48;;
22644;SDS011;11489;50.834;6.752;2022-07-10T07:40:18;5.07;;;1.17;;
22644;SDS011;11489;50.834;6.752;2022-07-10T07:42:46;4.68;;;1.52;;
22644;SDS011;11489;50.834;6.752;2022-07-10T07:45:12;4.00;;;1.30;;
22644;SDS011;11489;50.834;6.752;2022-07-10T07:47:47;2.80;;;1.10;;
22644;SDS011;11489;50.834;6.752;2022-07-10T07:50:14;5.93;;;1.52;;
22644;SDS011;11489;50.834;6.752;2022-07-10T07:52:40;5.05;;;1.52;;
22644;SDS011;11489;50.834;6.752;2022-07-10T07:55:07;8.68;;;1.70;;
22644;SDS011;11489;50.834;6.752;2022-07-10T07:57:33;3.47;;;1.63;;
22644;SDS011;11489;50.834;6.752;2022-07-10T07:59:59;4.57;;;1.23;;
22644;SDS011;11489;50.834;6.752;2022-07-10T08:02:25;2.58;;;1.20;;
22644;SDS011;11489;50.834;6.752;2022-07-10T08:04:50;5.53;;;1.33;;
22644;SDS011;11489;50.834;6.752;2022-07-10T08:07:16;5.13;;;1.45;;
22644;SDS011;11489;50.834;6.752;2022-07-10T08:09:42;4.32;;;1.10;;
22644;SDS011;11489;50.834;6.752;2022-07-10T08:12:09;5.47;;;1.42;;
22644;SDS011;11489;50.834;6.752;2022-07-10T08:14:35;4.47;;;1.60;;
22644;SDS011;11489;50.834;6.752;2022-07-10T08:17:01;6.57;;;1.50;;
22644;SDS011;11489;50.834;6.752;2022-07-10T08:19:28;4.22;;;1.40;;
22644;SDS011;11489;50.834;6.752;2022-07-10T08:21:54;3.80;;;1.33;;
22644;SDS011;11489;50.834;6.752;2022-07-10T08:24:19;4.13;;;1.65;;
22644;SDS011;11489;50.834;6.752;2022-07-10T08:26:45;6.57;;;1.42;;
22644;SDS011;11489;50.834;6.752;2022-07-10T08:29:10;2.85;;;1.30;;
22644;SDS011;11489;50.834;6.752;2022-07-10T08:31:36;6.13;;;1.63;;
22644;SDS011;11489;50.834;6.752;2022-07-10T08:34:02;7.13;;;1.90;;
22644;SDS011;11489;50.834;6.752;2022-07-10T08:36:27;3.67;;;1.80;;
22644;SDS011;11489;50.834;6.752;2022-07-10T08:38:53;3.67;;;1.50;;
22644;SDS011;11489;50.834;6.752;2022-07-10T08:41:22;4.10;;;1.70;;
22644;SDS011;11489;50.834;6.752;2022-07-10T08:43:49;7.13;;;2.00;;
22644;SDS011;11489;50.834;6.752;2022-07-10T08:46:15;5.65;;;2.03;;
22644;SDS011;11489;50.834;6.752;2022-07-10T08:48:42;4.60;;;1.90;;
22644;SDS011;11489;50.834;6.752;2022-07-10T08:51:12;4.97;;;2.00;;
22644;SDS011;11489;50.834;6.752;2022-07-10T08:53:45;4.90;;;2.13;;
22644;SDS011;11489;50.834;6.752;2022-07-10T08:56:15;8.30;;;2.30;;
22644;SDS011;11489;50.834;6.752;2022-07-10T08:58:41;3.92;;;2.05;;
22644;SDS011;11489;50.834;6.752;2022-07-10T09:01:07;5.15;;;2.15;;
22644;SDS011;11489;50.834;6.752;2022-07-10T09:03:33;4.32;;;1.65;;
22644;SDS011;11489;50.834;6.752;2022-07-10T09:05:59;4.82;;;1.70;;
22644;SDS011;11489;50.834;6.752;2022-07-10T09:08:26;4.10;;;1.80;;
22644;SDS011;11489;50.834;6.752;2022-07-10T09:11:16;5.82;;;2.20;;
22644;SDS011;11489;50.834;6.752;2022-07-10T09:13:49;5.03;;;1.95;;
22644;SDS011;11489;50.834;6.752;2022-07-10T09:16:22;4.25;;;1.40;;
22644;SDS011;11489;50.834;6.752;2022-07-10T09:18:53;4.57;;;1.00;;
22644;SDS011;11489;50.834;6.752;2022-07-10T09:21:19;6.10;;;1.35;;
22644;SDS011;11489;50.834;6.752;2022-07-10T09:23:46;3.28;;;1.20;;
22644;SDS011;11489;50.834;6.752;2022-07-10T09:26:12;4.72;;;1.35;;
22644;SDS011;11489;50.834;6.752;2022-07-10T09:28:37;5.70;;;1.20;;
22644;SDS011;11489;50.834;6.752;2022-07-10T09:31:03;5.80;;;1.25;;
22644;SDS011;11489;50.834;6.752;2022-07-10T09:33:30;2.67;;;1.17;;
22644;SDS011;11489;50.834;6.752;2022-07-10T09:46:27;5.20;;;1.67;;
22644;SDS011;11489;50.834;6.752;2022-07-10T09:51:41;6.38;;;1.50;;
22644;SDS011;11489;50.834;6.752;2022-07-10T09:54:08;4.03;;;1.38;;
22644;SDS011;11489;50.834;6.752;2022-07-10T09:56:50;1.58;;;0.80;;
22644;SDS011;11489;50.834;6.752;2022-07-10T09:59:21;5.50;;;1.40;;
22644;SDS011;11489;50.834;6.752;2022-07-10T10:01:50;2.47;;;1.10;;
22644;SDS011;11489;50.834;6.752;2022-07-10T10:04:18;2.42;;;1.00;;
22644;SDS011;11489;50.834;6.752;2022-07-10T10:06:46;2.47;;;1.00;;
22644;SDS011;11489;50.834;6.752;2022-07-10T10:09:24;3.47;;;1.13;;
22644;SDS011;11489;50.834;6.752;2022-07-10T10:11:59;5.88;;;1.58;;
22644;SDS011;11489;50.834;6.752;2022-07-10T10:14:29;7.35;;;1.40;;
22644;SDS011;11489;50.834;6.752;2022-07-10T10:16:56;4.68;;;1.38;;
22644;SDS011;11489;50.834;6.752;2022-07-10T10:19:24;3.88;;;1.02;;
22644;SDS011;11489;50.834;6.752;2022-07-10T10:22:12;7.28;;;1.27;;
22644;SDS011;11489;50.834;6.752;2022-07-10T10:24:38;3.05;;;1.10;;
22644;SDS011;11489;50.834;6.752;2022-07-10T10:27:04;3.97;;;1.40;;
22644;SDS011;11489;50.834;6.752;2022-07-10T10:29:31;3.53;;;1.05;;
22644;SDS011;11489;50.834;6.752;2022-07-10T10:32:00;4.75;;;1.30;;
22644;SDS011;11489;50.834;6.752;2022-07-10T10:34:45;4.95;;;1.30;;
22644;SDS011;11489;50.834;6.752;2022-07-10T10:39:52;5.43;;;1.40;;
22644;SDS011;11489;50.834;6.752;2022-07-10T10:47:58;4.88;;;1.23;;
22644;SDS011;11489;50.834;6.752;2022-07-10T10:53:22;5.85;;;1.30;;
22644;SDS011;11489;50.834;6.752;2022-07-10T10:58:28;2.47;;;1.10;;
22644;SDS011;11489;50.834;6.752;2022-07-10T11:06:45;2.95;;;1.02;;
22644;SDS011;11489;50.834;6.752;2022-07-10T11:09:21;4.82;;;1.13;;
22644;SDS011;11489;50.834;6.752;2022-07-10T11:14:30;2.95;;;1.00;;
22644;SDS011;11489;50.834;6.752;2022-07-10T11:16:57;1.83;;;0.93;;
22644;SDS011;11489;50.834;6.752;2022-07-10T11:19:32;4.65;;;1.08;;
22644;SDS011;11489;50.834;6.752;2022-07-10T11:30:42;1.75;;;0.90;;
22644;SDS011;11489;50.834;6.752;2022-07-10T11:33:18;3.15;;;0.95;;
22644;SDS011;11489;50.834;6.752;2022-07-10T11:35:50;5.68;;;1.00;;
22644;SDS011;11489;50.834;6.752;2022-07-10T11:38:21;3.28;;;1.45;;
22644;SDS011;11489;50.834;6.752;2022-07-10T11:40:48;5.75;;;0.95;;
22644;SDS011;11489;50.834;6.752;2022-07-10T11:43:15;1.55;;;0.98;;
22644;SDS011;11489;50.834;6.752;2022-07-10T11:45:47;2.42;;;0.95;;
22644;SDS011;11489;50.834;6.752;2022-07-10T11:48:17;2.40;;;0.70;;
22644;SDS011;11489;50.834;6.752;2022-07-10T11:50:43;1.83;;;0.70;;
22644;SDS011;11489;50.834;6.752;2022-07-10T11:53:09;1.25;;;0.90;;
22644;SDS011;11489;50.834;6.752;2022-07-10T11:55:35;1.98;;;0.95;;
22644;SDS011;11489;50.834;6.752;2022-07-10T11:58:15;1.95;;;0.90;;
22644;SDS011;11489;50.834;6.752;2022-07-10T12:00:42;3.42;;;1.00;;
22644;SDS011;11489;50.834;6.752;2022-07-10T12:03:16;2.33;;;1.10;;
22644;SDS011;11489;50.834;6.752;2022-07-10T12:05:44;2.03;;;1.10;;
22644;SDS011;11489;50.834;6.752;2022-07-10T12:08:10;4.35;;;1.27;;
22644;SDS011;11489;50.834;6.752;2022-07-10T12:10:36;1.85;;;1.15;;
22644;SDS011;11489;50.834;6.752;2022-07-10T12:13:05;2.45;;;1.50;;
22644;SDS011;11489;50.834;6.752;2022-07-10T12:15:33;3.03;;;1.27;;
22644;SDS011;11489;50.834;6.752;2022-07-10T12:18:04;2.30;;;1.40;;
22644;SDS011;11489;50.834;6.752;2022-07-10T12:20:30;4.60;;;1.65;;
22644;SDS011;11489;50.834;6.752;2022-07-10T12:22:57;2.88;;;1.52;;
22644;SDS011;11489;50.834;6.752;2022-07-10T12:25:23;3.05;;;1.23;;
22644;SDS011;11489;50.834;6.752;2022-07-10T12:27:54;3.92;;;1.33;;
22644;SDS011;11489;50.834;6.752;2022-07-10T12:30:34;2.05;;;1.30;;
22644;SDS011;11489;50.834;6.752;2022-07-10T12:33:08;2.38;;;1.23;;
22644;SDS011;11489;50.834;6.752;2022-07-10T12:35:48;1.95;;;1.35;;
22644;SDS011;11489;50.834;6.752;2022-07-10T12:38:16;5.80;;;1.48;;
22644;SDS011;11489;50.834;6.752;2022-07-10T12:40:50;3.58;;;1.35;;
22644;SDS011;11489;50.834;6.752;2022-07-10T12:43:26;2.70;;;1.27;;
22644;SDS011;11489;50.834;6.752;2022-07-10T12:46:08;2.92;;;1.20;;
22644;SDS011;11489;50.834;6.752;2022-07-10T12:51:30;2.92;;;1.20;;
22644;SDS011;11489;50.834;6.752;2022-07-10T12:54:07;3.55;;;1.33;;
22644;SDS011;11489;50.834;6.752;2022-07-10T12:56:33;4.20;;;1.40;;
22644;SDS011;11489;50.834;6.752;2022-07-10T12:59:01;2.13;;;1.30;;
22644;SDS011;11489;50.834;6.752;2022-07-10T13:01:28;1.95;;;1.30;;
22644;SDS011;11489;50.834;6.752;2022-07-10T13:04:05;3.47;;;1.15;;
22644;SDS011;11489;50.834;6.752;2022-07-10T13:06:31;2.30;;;1.30;;
22644;SDS011;11489;50.834;6.752;2022-07-10T13:08:58;2.90;;;1.30;;
22644;SDS011;11489;50.834;6.752;2022-07-10T13:11:24;3.20;;;1.30;;
22644;SDS011;11489;50.834;6.752;2022-07-10T13:13:50;2.55;;;1.40;;
22644;SDS011;11489;50.834;6.752;2022-07-10T13:16:16;3.33;;;1.70;;
22644;SDS011;11489;50.834;6.752;2022-07-10T13:18:42;3.70;;;1.63;;
22644;SDS011;11489;50.834;6.752;2022-07-10T13:21:11;4.40;;;1.77;;
22644;SDS011;11489;50.834;6.752;2022-07-10T13:23:37;3.10;;;1.55;;
22644;SDS011;11489;50.834;6.752;2022-07-10T13:26:03;4.70;;;2.20;;
22644;SDS011;11489;50.834;6.752;2022-07-10T13:28:31;2.67;;;1.48;;
22644;SDS011;11489;50.834;6.752;2022-07-10T13:30:58;9.55;;;1.90;;
22644;SDS011;11489;50.834;6.752;2022-07-10T13:33:24;4.07;;;1.77;;
22644;SDS011;11489;50.834;6.752;2022-07-10T13:35:50;4.30;;;1.90;;
22644;SDS011;11489;50.834;6.752;2022-07-10T13:38:17;4.45;;;2.00;;
22644;SDS011;11489;50.834;6.752;2022-07-10T13:40:44;3.85;;;1.80;;
22644;SDS011;11489;50.834;6.752;2022-07-10T13:43:11;4.15;;;1.80;;
22644;SDS011;11489;50.834;6.752;2022-07-10T13:45:38;2.42;;;1.50;;
22644;SDS011;11489;50.834;6.752;2022-07-10T13:48:12;4.97;;;1.80;;
22644;SDS011;11489;50.834;6.752;2022-07-10T13:50:39;4.03;;;1.85;;
22644;SDS011;11489;50.834;6.752;2022-07-10T13:53:06;4.35;;;1.70;;
22644;SDS011;11489;50.834;6.752;2022-07-10T13:55:35;3.25;;;1.73;;
22644;SDS011;11489;50.834;6.752;2022-07-10T13:58:01;4.00;;;1.63;;
22644;SDS011;11489;50.834;6.752;2022-07-10T14:00:27;2.78;;;1.77;;
22644;SDS011;11489;50.834;6.752;2022-07-10T14:02:53;4.18;;;1.70;;
22644;SDS011;11489;50.834;6.752;2022-07-10T14:05:21;3.05;;;1.50;;
22644;SDS011;11489;50.834;6.752;2022-07-10T14:07:47;4.50;;;1.63;;
22644;SDS011;11489;50.834;6.752;2022-07-10T14:10:13;1.92;;;1.60;;
22644;SDS011;11489;50.834;6.752;2022-07-10T14:12:40;2.85;;;1.50;;
22644;SDS011;11489;50.834;6.752;2022-07-10T14:15:06;3.58;;;1.60;;
22644;SDS011;11489;50.834;6.752;2022-07-10T14:17:32;2.25;;;1.67;;
22644;SDS011;11489;50.834;6.752;2022-07-10T14:19:58;5.53;;;1.90;;
22644;SDS011;11489;50.834;6.752;2022-07-10T14:22:24;2.03;;;1.42;;
22644;SDS011;11489;50.834;6.752;2022-07-10T14:24:50;2.13;;;1.50;;
22644;SDS011;11489;50.834;6.752;2022-07-10T14:27:17;3.35;;;1.80;;
22644;SDS011;11489;50.834;6.752;2022-07-10T14:29:42;4.32;;;1.80;;
22644;SDS011;11489;50.834;6.752;2022-07-10T14:32:08;4.40;;;1.70;;
22644;SDS011;11489;50.834;6.752;2022-07-10T14:34:34;2.92;;;1.60;;
22644;SDS011;11489;50.834;6.752;2022-07-10T14:37:00;3.10;;;1.60;;
22644;SDS011;11489;50.834;6.752;2022-07-10T14:39:26;2.42;;;1.48;;
22644;SDS011;11489;50.834;6.752;2022-07-10T14:41:52;4.60;;;1.50;;
22644;SDS011;11489;50.834;6.752;2022-07-10T14:44:18;3.78;;;1.77;;
22644;SDS011;11489;50.834;6.752;2022-07-10T14:46:44;3.50;;;1.60;;
22644;SDS011;11489;50.834;6.752;2022-07-10T14:49:09;1.98;;;1.25;;
22644;SDS011;11489;50.834;6.752;2022-07-10T14:51:35;4.57;;;1.85;;
22644;SDS011;11489;50.834;6.752;2022-07-10T14:54:01;3.30;;;1.55;;
22644;SDS011;11489;50.834;6.752;2022-07-10T14:56:27;3.35;;;1.70;;
22644;SDS011;11489;50.834;6.752;2022-07-10T14:58:54;3.67;;;1.70;;
22644;SDS011;11489;50.834;6.752;2022-07-10T15:01:19;3.22;;;1.80;;
22644;SDS011;11489;50.834;6.752;2022-07-10T15:03:46;4.07;;;1.70;;
22644;SDS011;11489;50.834;6.752;2022-07-10T15:06:11;3.75;;;1.63;;
22644;SDS011;11489;50.834;6.752;2022-07-10T15:08:37;3.50;;;1.85;;
22644;SDS011;11489;50.834;6.752;2022-07-10T15:11:03;3.47;;;2.00;;
22644;SDS011;11489;50.834;6.752;2022-07-10T15:13:30;2.80;;;1.65;;
22644;SDS011;11489;50.834;6.752;2022-07-10T15:15:56;3.78;;;1.80;;
22644;SDS011;11489;50.834;6.752;2022-07-10T15:18:21;2.60;;;1.70;;
22644;SDS011;11489;50.834;6.752;2022-07-10T15:20:47;2.35;;;1.50;;
22644;SDS011;11489;50.834;6.752;2022-07-10T15:23:13;2.05;;;1.55;;
22644;SDS011;11489;50.834;6.752;2022-07-10T15:25:40;4.32;;;1.90;;
22644;SDS011;11489;50.834;6.752;2022-07-10T15:28:06;3.22;;;1.50;;
22644;SDS011;11489;50.834;6.752;2022-07-10T15:30:36;4.30;;;1.58;;
22644;SDS011;11489;50.834;6.752;2022-07-10T15:33:03;2.88;;;1.40;;
22644;SDS011;11489;50.834;6.752;2022-07-10T15:35:30;3.08;;;1.50;;
22644;SDS011;11489;50.834;6.752;2022-07-10T15:37:59;2.33;;;1.30;;